createdAt,value
2023-05-14T00:00:11.893Z,17693.13
2023-05-14T00:04:33.865Z,17654.25
2023-05-14T00:08:55.646Z,17682.88
2023-05-14T00:13:18.933Z,17668.56
2023-05-14T00:17:40.779Z,17662.44
2023-05-14T00:22:02.525Z,17656.28
2023-05-14T00:26:24.347Z,17707.44
2023-05-14T00:30:47.471Z,17699.25
2023-05-14T00:35:09.755Z,17672.66
2023-05-14T00:39:31.511Z,17670.63
2023-05-14T00:43:53.223Z,17684.94
2023-05-14T00:48:16.803Z,17670.63
2023-05-14T00:52:39.022Z,17641.97
2023-05-14T00:57:01.043Z,17662.44
2023-05-14T01:01:22.978Z,17727.91
2023-05-14T01:05:56.065Z,17860.84
2023-05-14T01:10:28.706Z,17822.00
2023-05-14T01:14:56.729Z,17840.41
2023-05-14T01:19:26.133Z,17834.25
2023-05-14T01:23:49.429Z,17770.84
2023-05-14T01:28:15.466Z,17674.72
2023-05-14T01:32:39.602Z,17752.44
2023-05-14T01:37:02.651Z,17666.53
2023-05-14T01:41:26.376Z,17707.44
2023-05-14T01:45:48.351Z,17772.91
2023-05-14T01:50:11.087Z,17727.91
2023-05-14T01:54:32.805Z,17695.16
2023-05-14T01:58:55.885Z,17723.81
2023-05-14T02:03:17.605Z,17842.44
2023-05-14T02:07:39.621Z,17699.25
2023-05-14T02:12:01.360Z,17697.22
2023-05-14T02:16:26.794Z,17740.16
2023-05-14T02:20:48.600Z,17717.66
2023-05-14T02:25:10.700Z,17672.66
2023-05-14T02:29:32.555Z,17756.53
2023-05-14T02:33:55.665Z,17946.78
2023-05-14T02:38:17.605Z,17819.94
2023-05-14T02:42:39.464Z,17772.91
2023-05-14T02:47:01.354Z,18018.38
2023-05-14T02:51:24.433Z,18177.97
2023-05-14T02:55:46.165Z,18092.03
2023-05-14T03:00:09.076Z,17961.09
2023-05-14T03:04:31.505Z,18083.84
2023-05-14T03:08:54.552Z,18300.72
2023-05-14T03:13:16.341Z,18783.56
2023-05-14T03:17:38.068Z,18051.13
2023-05-14T03:22:00.162Z,17936.56
2023-05-14T03:26:23.248Z,17817.91
2023-05-14T03:30:45.057Z,17731.97
2023-05-14T03:35:07.857Z,17697.22
2023-05-14T03:39:29.646Z,17748.34
2023-05-14T03:43:52.751Z,17889.50
2023-05-14T03:48:14.567Z,17756.53
2023-05-14T03:52:36.406Z,17723.81
2023-05-14T03:56:58.156Z,17666.53
2023-05-14T04:01:21.348Z,17617.44
2023-05-14T04:05:43.223Z,17586.75
2023-05-14T04:10:06.147Z,17627.66
2023-05-14T04:14:27.993Z,17682.88
2023-05-14T04:18:51.557Z,17801.53
2023-05-14T04:23:13.340Z,17752.44
2023-05-14T04:27:35.654Z,17701.31
2023-05-14T04:31:57.466Z,17666.53
2023-05-14T04:36:20.621Z,17650.16
2023-05-14T04:40:42.401Z,17641.97
2023-05-14T04:45:04.905Z,17695.16
2023-05-14T04:49:26.860Z,17697.22
2023-05-14T04:53:49.966Z,17738.13
2023-05-14T04:58:11.709Z,17686.97
2023-05-14T05:02:33.475Z,17703.34
2023-05-14T05:06:55.305Z,17664.47
2023-05-14T05:11:18.440Z,17711.53
2023-05-14T05:15:40.230Z,17756.53
2023-05-14T05:20:02.344Z,18010.19
2023-05-14T05:24:24.161Z,18290.47
2023-05-14T05:28:47.217Z,18671.03
2023-05-14T05:33:09.090Z,19233.75
2023-05-14T05:37:30.970Z,20242.75
2023-05-14T05:41:54.147Z,27686.38
2023-05-14T05:46:17.240Z,23617.56
2023-05-14T05:50:39.033Z,28141.69
2023-05-14T05:55:00.765Z,27175.75
2023-05-14T05:59:22.558Z,22804.31
2023-05-14T06:03:48.225Z,24625.66
2023-05-14T06:08:10.698Z,21037.06
2023-05-14T06:12:32.489Z,19530.50
2023-05-14T06:16:54.299Z,21129.19
2023-05-14T06:21:17.479Z,23855.22
2023-05-14T06:25:39.226Z,23920.78
2023-05-14T06:30:00.989Z,23150.50
2023-05-14T06:34:22.844Z,22828.91
2023-05-14T06:38:46.204Z,22622.03
2023-05-14T06:43:07.919Z,22140.75
2023-05-14T06:47:29.711Z,21763.94
2023-05-14T06:51:51.526Z,20867.13
2023-05-14T06:56:14.891Z,20363.53
2023-05-14T07:00:36.716Z,20320.56
2023-05-14T07:04:58.522Z,20267.31
2023-05-14T07:09:20.289Z,20416.75
2023-05-14T07:13:43.383Z,20228.44
2023-05-14T07:18:05.278Z,20392.19
2023-05-14T07:22:27.072Z,20447.47
2023-05-14T07:26:48.969Z,20543.69
2023-05-14T07:31:12.161Z,20508.88
2023-05-14T07:35:34.165Z,20680.84
2023-05-14T07:39:55.903Z,20576.44
2023-05-14T07:44:17.735Z,20801.63
2023-05-14T07:48:40.887Z,20867.13
2023-05-14T07:53:02.733Z,20940.84
2023-05-14T07:57:24.458Z,20967.44
2023-05-14T08:01:46.204Z,21018.63
2023-05-14T08:06:09.319Z,21096.44
2023-05-14T08:10:31.104Z,20713.59
2023-05-14T08:14:53.034Z,20435.19
2023-05-14T08:19:15.984Z,19434.31
2023-05-14T08:23:39.059Z,19235.81
2023-05-14T08:28:00.809Z,19045.50
2023-05-14T08:32:23.728Z,18986.16
2023-05-14T08:36:45.952Z,18898.16
2023-05-14T08:41:10.038Z,18906.34
2023-05-14T08:45:33.289Z,18914.53
2023-05-14T08:50:00.842Z,18871.56
2023-05-14T08:54:23.288Z,18714.00
2023-05-14T08:58:46.371Z,18722.19
2023-05-14T09:03:08.480Z,18808.13
2023-05-14T09:07:30.410Z,18873.59
2023-05-14T09:11:53.677Z,18926.81
2023-05-14T09:16:18.766Z,18943.19
2023-05-14T09:20:40.996Z,18935.00
2023-05-14T09:25:04.785Z,18961.59
2023-05-14T09:29:29.020Z,18982.06
2023-05-14T09:33:52.790Z,18937.03
2023-05-14T09:38:14.735Z,19053.69
2023-05-14T09:42:36.481Z,19059.81
2023-05-14T09:46:58.406Z,19127.34
2023-05-14T09:51:21.547Z,19149.84
2023-05-14T09:55:43.331Z,19102.78
2023-05-14T10:00:06.267Z,19252.19
2023-05-14T10:04:28.169Z,19321.75
2023-05-14T10:08:55.567Z,19303.34
2023-05-14T10:13:22.030Z,19291.06
2023-05-14T10:17:49.048Z,19215.34
2023-05-14T10:22:14.855Z,19246.03
2023-05-14T10:26:40.386Z,19327.91
2023-05-14T10:31:02.299Z,19207.16
2023-05-14T10:35:24.156Z,19309.47
2023-05-14T10:39:47.414Z,19123.25
2023-05-14T10:44:11.490Z,19049.59
2023-05-14T10:48:34.181Z,18961.59
2023-05-14T10:52:56.147Z,19147.81
2023-05-14T10:57:19.111Z,19438.41
2023-05-14T11:01:42.905Z,19538.69
2023-05-14T11:06:06.177Z,19589.84
2023-05-14T11:10:27.988Z,19608.25
2023-05-14T11:14:50.653Z,19696.28
2023-05-14T11:19:13.913Z,19851.81
2023-05-14T11:23:35.979Z,19937.78
2023-05-14T11:27:58.125Z,20107.66
2023-05-14T11:32:20.393Z,20154.75
2023-05-14T11:36:43.569Z,19491.63
2023-05-14T11:41:05.370Z,19301.28
2023-05-14T11:45:27.733Z,19602.13
2023-05-14T11:49:49.742Z,19321.75
2023-05-14T11:54:13.841Z,19790.41
2023-05-14T11:58:35.597Z,20195.69
2023-05-14T12:02:57.440Z,20355.34
2023-05-14T12:07:19.554Z,20429.03
2023-05-14T12:11:42.655Z,20504.78
2023-05-14T12:16:04.900Z,20607.13
2023-05-14T12:20:29.390Z,20549.81
2023-05-14T12:24:54.570Z,20394.25
2023-05-14T12:29:17.720Z,20592.81
2023-05-14T12:33:39.444Z,20230.47
2023-05-14T12:38:01.190Z,19827.25
2023-05-14T12:42:22.938Z,20017.59
2023-05-14T12:46:46.042Z,19622.59
2023-05-14T12:51:07.863Z,19507.97
2023-05-14T12:55:29.723Z,19444.53
2023-05-14T12:59:51.501Z,19565.28
2023-05-14T13:04:14.684Z,19520.25
2023-05-14T13:08:36.490Z,19653.28
2023-05-14T13:12:58.248Z,20179.31
2023-05-14T13:17:20.018Z,20355.34
2023-05-14T13:21:43.121Z,20040.13
2023-05-14T13:26:04.922Z,19831.34
2023-05-14T13:30:26.766Z,19733.13
2023-05-14T13:34:48.570Z,20095.38
2023-05-14T13:39:12.693Z,20169.06
2023-05-14T13:43:35.940Z,20236.63
2023-05-14T13:47:57.698Z,20347.16
2023-05-14T13:52:19.565Z,20465.88
2023-05-14T13:56:42.631Z,20367.63
2023-05-14T14:01:05.538Z,20347.16
2023-05-14T14:05:27.526Z,20312.38
2023-05-14T14:09:49.376Z,20210.00
2023-05-14T14:14:12.633Z,20097.44
2023-05-14T14:18:34.433Z,20048.31
2023-05-14T14:22:56.386Z,19870.25
2023-05-14T14:27:19.128Z,19823.16
2023-05-14T14:31:42.238Z,19778.13
2023-05-14T14:36:04.633Z,19733.13
2023-05-14T14:40:26.442Z,19724.94
2023-05-14T14:44:48.178Z,19647.16
2023-05-14T14:49:11.337Z,19583.72
2023-05-14T14:58:24.489Z,19567.34
2023-05-14T15:04:28.119Z,19462.97
2023-05-14T15:08:29.545Z,19462.97
2023-05-14T15:12:30.997Z,19483.44
2023-05-14T15:16:32.455Z,19393.38
2023-05-14T15:20:35.256Z,19422.03
2023-05-14T15:24:36.732Z,19413.84
2023-05-14T15:28:38.189Z,19393.38
2023-05-14T15:32:39.714Z,19454.78
2023-05-14T15:36:42.472Z,19462.97
2023-05-14T15:40:43.895Z,19407.72
2023-05-14T15:44:45.302Z,19360.63
2023-05-14T15:48:46.705Z,19340.16
2023-05-14T15:52:49.570Z,19411.78
2023-05-14T15:56:51.002Z,19262.41
2023-05-14T16:00:52.386Z,19239.91
2023-05-14T16:04:53.792Z,19219.44
2023-05-14T16:08:56.568Z,19213.28
2023-05-14T16:12:57.935Z,19190.78
2023-05-14T16:16:59.386Z,19119.16
2023-05-14T16:21:00.758Z,19156.00
2023-05-14T16:25:03.966Z,19115.06
2023-05-14T16:29:05.548Z,19106.88
2023-05-14T16:33:07.120Z,19045.50
2023-05-14T16:37:09.650Z,19035.25
2023-05-14T16:41:13.597Z,18971.81
2023-05-14T16:45:15.125Z,18992.28
2023-05-14T16:49:16.535Z,18980.00
2023-05-14T16:53:17.934Z,18967.72
2023-05-14T16:57:20.656Z,18926.81
2023-05-14T17:01:22.159Z,18916.56
2023-05-14T17:05:23.857Z,18918.63
2023-05-14T17:09:25.419Z,18918.63
2023-05-14T17:13:28.152Z,18918.63
2023-05-14T17:17:29.593Z,18849.06
2023-05-14T17:21:31.041Z,18865.41
2023-05-14T17:25:32.489Z,18820.41
2023-05-14T17:29:35.231Z,18816.31
2023-05-14T17:33:36.640Z,18810.19
2023-05-14T17:37:38.098Z,18752.88
2023-05-14T17:41:39.695Z,18775.38
2023-05-14T17:45:52.954Z,18754.94
2023-05-14T17:49:55.618Z,18705.81
2023-05-14T17:53:57.083Z,18687.41
2023-05-14T17:57:58.721Z,18683.31
2023-05-14T18:02:01.458Z,18640.34
2023-05-14T18:06:03.292Z,18648.53
2023-05-14T18:10:05.815Z,18656.72
2023-05-14T18:14:07.279Z,18595.34
2023-05-14T18:18:10.354Z,18570.78
2023-05-14T18:22:11.883Z,18587.16
2023-05-14T18:26:13.328Z,18589.19
2023-05-14T18:30:15.627Z,18552.38
2023-05-14T18:34:18.415Z,18540.09
2023-05-14T18:38:19.770Z,18550.31
2023-05-14T18:42:21.164Z,18517.59
2023-05-14T18:46:22.646Z,18480.75
2023-05-14T18:50:25.481Z,18515.53
2023-05-14T18:54:26.919Z,18499.16
2023-05-14T18:58:28.301Z,18490.97
2023-05-14T19:02:29.943Z,18452.09
2023-05-14T19:06:32.781Z,18472.56
2023-05-14T19:10:34.205Z,18435.75
2023-05-14T19:14:35.572Z,18419.38
2023-05-14T19:18:37.177Z,18419.38
2023-05-14T19:22:39.978Z,18415.28
2023-05-14T19:26:41.576Z,18443.94
2023-05-14T19:30:42.979Z,18433.69
2023-05-14T19:34:44.371Z,18437.78
2023-05-14T19:38:47.521Z,18380.50
2023-05-14T19:42:48.945Z,18317.06
2023-05-14T19:46:50.993Z,18177.97
2023-05-14T19:50:52.633Z,18141.13
2023-05-14T19:54:55.428Z,18161.59
2023-05-14T19:58:57.533Z,18108.41
2023-05-14T20:02:59.284Z,18112.50
2023-05-14T20:07:00.989Z,18096.13
2023-05-14T20:11:03.973Z,18055.22
2023-05-14T20:15:06.146Z,18124.75
2023-05-14T20:19:07.736Z,18092.03
2023-05-14T20:23:09.271Z,18151.34
2023-05-14T20:27:12.370Z,18057.25
2023-05-14T20:31:13.866Z,18132.94
2023-05-14T20:35:15.392Z,18112.50
2023-05-14T20:39:17.269Z,18087.94
2023-05-14T20:43:20.087Z,18143.19
2023-05-14T20:47:24.656Z,18108.41
2023-05-14T20:51:26.357Z,18155.44
2023-05-14T20:55:28.167Z,18188.19
2023-05-14T20:59:31.120Z,18229.09
2023-05-14T21:03:32.664Z,18227.06
2023-05-14T21:07:34.361Z,18235.25
2023-05-14T21:11:35.862Z,18214.78
2023-05-14T21:15:38.836Z,18182.03
2023-05-14T21:19:40.292Z,18167.72
2023-05-14T21:23:41.850Z,18220.91
2023-05-14T21:27:43.453Z,18255.69
2023-05-14T21:31:46.504Z,18180.00
2023-05-14T21:35:48.011Z,18255.69
2023-05-14T21:39:49.504Z,18167.72
2023-05-14T21:43:51.003Z,18190.22
2023-05-14T21:47:53.945Z,18124.75
2023-05-14T21:51:55.374Z,18114.53
2023-05-14T21:55:56.992Z,18026.56
2023-05-14T21:59:58.495Z,18077.72
2023-05-14T22:04:01.263Z,18024.53
2023-05-14T22:08:02.743Z,18030.66
2023-05-14T22:12:04.848Z,18087.94
2023-05-14T22:16:12.578Z,18077.72
2023-05-14T22:20:16.664Z,17973.38
2023-05-14T22:24:18.319Z,18034.75
2023-05-14T22:28:19.998Z,17967.25
2023-05-14T22:32:21.469Z,17959.06
2023-05-14T22:36:24.242Z,17989.75
2023-05-14T22:40:25.664Z,18053.16
2023-05-14T22:44:29.646Z,17944.72
2023-05-14T22:48:31.383Z,17983.59
2023-05-14T22:52:34.158Z,17936.56
2023-05-14T22:56:35.754Z,18018.38
2023-05-14T23:00:37.318Z,17989.75
2023-05-14T23:04:38.864Z,18132.94
2023-05-14T23:08:41.736Z,18006.09
2023-05-14T23:12:43.143Z,18083.84
2023-05-14T23:16:44.726Z,18055.22
2023-05-14T23:20:46.182Z,18067.47
2023-05-14T23:24:49.065Z,17926.31
2023-05-14T23:28:50.486Z,17895.63
2023-05-14T23:32:52.096Z,17987.69
2023-05-14T23:36:53.942Z,17950.88
2023-05-14T23:40:56.678Z,17924.28
2023-05-14T23:44:58.178Z,17903.81
2023-05-14T23:48:59.779Z,18100.22
2023-05-14T23:53:01.430Z,17942.69
2023-05-14T23:57:04.640Z,17942.69
